Airfield :







YOU CAN JOIN US ON...

 
LOGIN :

Register | Disclaimer

   EN    FR    IT 

 









Legend :    VFR   Marginal VFR   IFR   Intensive IFR   Very Intensive IFR
Visi :
Ceiling :
>= 8 km
>= 3000ft
5 to 8 km
1000 to 3000 ft
1500m to 5 km
500 to 1000 ft
800 to 1500m
200 to 500 ft
< 800m
< 200 ft
Symbols :   Thunderstorms  Fog  Heavy snow  Heavy precipitations  Wind > 20 kt






- Airport Elevation : 930 ft


KEFK - Newport State

CURRENT METAR :
  • 280716Z AUTO 31003KT 10SM SCT016 SCT021 OVC035 M02/M02 A2965 RMK AO2 T10171025

EXPIRED METARs :
  • 280655Z AUTO 31004KT 10SM BKN016 OVC021 M02/M02 A2965 RMK AO2 T10171025
  • 280636Z AUTO 32004KT 10SM SCT008 BKN014 OVC023 M02/M02 A2965 RMK AO2 T10171022
  • 280616Z AUTO 32004KT 10SM BKN010 OVC018 M02/M02 A2964 RMK AO2 T10181020
  • 280556Z AUTO 31003KT 7SM SCT013 OVC020 M02/M02 A2964 RMK AO2 T10181021 11002 21020
  • 280536Z AUTO 32004KT 5SM UP OVC020 M02/M02 A2964 RMK AO2 T10181021
  • 280517Z AUTO 34007KT 4SM UP SCT016 BKN021 OVC028 M02/M02 A2964 RMK AO2 T10181024

TAF N/A



MET'MAP, your aeronautical weather chart ! - Copyright ORBIFLY December 2007 - Disclaimer

ORBIFLY MET'MAP TEAM :

Programming & Development : Alexandra Zaïnal
Concept & original design : Baudouin d'Aumeries
Assistance for programming : Marc-Olivier Méhu
Technical & hardware support : Manuel Goepfert

Contact : metmap@orbifly.com




SOURCES & CREDITS :

   NOAA